Time;durP1;ratioP1;P1;durP2;ratioP2;P2;SDS_P1;SDS_P2;PMS_P1;PMS_P2;Temp;Humidity;BMP_temperature;BMP_pressure;BME280_temperature;BME280_humidity;BME280_pressure;Samples;Min_cycle;Max_cycle;Signal;HPM_P1;HPM_P2
2021/11/06 00:00:54;;;;;;;7.63;2.75;;;21.30;48.60;;;;;;5020643;28;20041;-63
2021/11/06 00:03:19;;;;;;;6.68;2.80;;;21.40;48.70;;;;;;5019879;28;20090;-63
2021/11/06 00:05:45;;;;;;;8.18;3.10;;;21.30;48.60;;;;;;5019983;28;20077;-63
2021/11/06 00:08:11;;;;;;;6.68;2.72;;;21.40;48.70;;;;;;5026289;28;20371;-63
2021/11/06 00:10:37;;;;;;;6.80;2.90;;;21.40;48.70;;;;;;5027357;28;20086;-64
2021/11/06 00:13:03;;;;;;;6.82;2.53;;;21.40;48.70;;;;;;5016777;28;20041;-62
2021/11/06 00:15:29;;;;;;;7.75;3.03;;;21.30;48.50;;;;;;5017595;28;20045;-63
2021/11/06 00:17:54;;;;;;;6.97;2.65;;;21.30;48.50;;;;;;5016016;28;20140;-64
2021/11/06 00:20:20;;;;;;;7.20;3.17;;;21.40;48.70;;;;;;5017250;28;20042;-64
2021/11/06 00:22:46;;;;;;;6.03;2.72;;;21.40;48.60;;;;;;5020283;28;20041;-63
2021/11/06 00:25:12;;;;;;;6.03;2.60;;;21.40;48.70;;;;;;5018371;28;20467;-62
2021/11/06 00:27:39;;;;;;;9.15;3.05;;;21.30;48.50;;;;;;5018827;28;20060;-64
2021/11/06 00:30:07;;;;;;;6.43;2.70;;;21.30;48.40;;;;;;5020163;28;20729;-63
2021/11/06 00:32:34;;;;;;;7.07;3.00;;;21.30;48.50;;;;;;5017891;28;20505;-63
2021/11/06 00:34:59;;;;;;;6.75;2.70;;;21.30;48.40;;;;;;5016704;28;20069;-63
2021/11/06 00:37:26;;;;;;;6.57;2.83;;;21.30;48.50;;;;;;5017779;28;20068;-64
2021/11/06 00:39:52;;;;;;;6.82;2.67;;;21.30;48.40;;;;;;5021758;28;20103;-63
2021/11/06 00:42:18;;;;;;;5.70;2.33;;;21.30;48.50;;;;;;5016082;28;20037;-64
2021/11/06 00:44:43;;;;;;;6.43;2.70;;;21.30;48.50;;;;;;5016640;28;20779;-63
2021/11/06 00:47:11;;;;;;;6.22;2.67;;;21.30;48.50;;;;;;5016406;28;20111;-64
2021/11/06 00:49:37;;;;;;;5.80;2.70;;;21.30;48.40;;;;;;5022046;28;20850;-63
2021/11/06 00:52:04;;;;;;;6.45;2.58;;;21.30;48.40;;;;;;5027567;28;20041;-63
2021/11/06 00:54:30;;;;;;;6.60;2.70;;;21.30;48.40;;;;;;5025780;28;20409;-63
2021/11/06 00:56:56;;;;;;;6.10;2.78;;;21.30;48.30;;;;;;5023166;28;20033;-63
2021/11/06 00:59:21;;;;;;;5.90;2.70;;;21.30;48.40;;;;;;5023170;28;20103;-63
2021/11/06 01:01:47;;;;;;;7.32;2.72;;;21.30;48.30;;;;;;5018343;28;20049;-63
2021/11/06 01:04:13;;;;;;;6.63;2.47;;;21.30;48.30;;;;;;5021152;28;20450;-64
2021/11/06 01:06:39;;;;;;;7.43;2.55;;;21.30;48.30;;;;;;5027249;28;20064;-64
2021/11/06 01:09:04;;;;;;;5.82;2.30;;;21.30;48.30;;;;;;5029433;28;20053;-63
2021/11/06 01:11:30;;;;;;;6.03;2.50;;;21.30;48.20;;;;;;5016663;28;20045;-63
2021/11/06 01:13:56;;;;;;;6.82;2.33;;;21.30;48.20;;;;;;5022460;28;20466;-63
2021/11/06 01:16:22;;;;;;;5.07;2.30;;;21.30;48.30;;;;;;5019120;28;20503;-64
2021/11/06 01:18:48;;;;;;;6.68;2.63;;;21.30;48.30;;;;;;5022773;28;20037;-63
2021/11/06 01:21:14;;;;;;;7.10;2.58;;;21.30;48.30;;;;;;5023117;28;20042;-62
2021/11/06 01:23:39;;;;;;;6.55;2.60;;;21.30;48.20;;;;;;5021988;28;20423;-62
2021/11/06 01:26:05;;;;;;;6.35;2.70;;;21.30;48.30;;;;;;5021804;28;20037;-63
2021/11/06 01:28:32;;;;;;;6.88;2.83;;;21.30;48.20;;;;;;5028215;28;20459;-63
2021/11/06 01:30:58;;;;;;;5.85;2.40;;;21.30;48.20;;;;;;5024721;28;20042;-63
2021/11/06 01:33:24;;;;;;;6.65;2.63;;;21.30;48.30;;;;;;5020381;28;20049;-65
2021/11/06 01:35:50;;;;;;;6.00;2.58;;;21.30;48.20;;;;;;5022027;28;20095;-63
2021/11/06 01:38:15;;;;;;;7.28;2.80;;;21.30;48.30;;;;;;5023041;28;20048;-63
2021/11/06 01:40:42;;;;;;;6.10;2.60;;;21.30;48.30;;;;;;5024358;28;20056;-64
2021/11/06 01:43:08;;;;;;;5.45;2.60;;;21.30;48.30;;;;;;5019568;28;20037;-63
2021/11/06 01:45:34;;;;;;;6.40;2.58;;;21.20;48.00;;;;;;5018697;28;20103;-63
2021/11/06 01:48:00;;;;;;;6.15;2.63;;;21.30;48.20;;;;;;5025998;28;20041;-63
2021/11/06 01:50:26;;;;;;;6.85;2.90;;;21.20;48.00;;;;;;5021680;28;20048;-63
2021/11/06 01:52:52;;;;;;;5.95;2.78;;;21.30;48.30;;;;;;5019764;28;20115;-63
2021/11/06 01:55:19;;;;;;;5.25;2.45;;;21.20;48.00;;;;;;5022199;28;20822;-64
2021/11/06 01:57:46;;;;;;;6.28;2.50;;;21.30;48.20;;;;;;5021585;28;20143;-63
2021/11/06 02:00:25;;;;;;;6.10;2.20;;;21.30;48.30;;;;;;5023794;28;20038;-63
2021/11/06 02:02:51;;;;;;;5.50;2.30;;;21.30;48.20;;;;;;5021543;28;20040;-63
2021/11/06 02:05:17;;;;;;;6.03;2.40;;;21.30;48.20;;;;;;5024691;28;20045;-63
2021/11/06 02:07:42;;;;;;;5.68;2.30;;;21.20;48.00;;;;;;5022477;28;20049;-63
2021/11/06 02:10:10;;;;;;;6.15;2.38;;;21.20;47.80;;;;;;5021567;28;20557;-64
2021/11/06 02:12:37;;;;;;;6.63;2.08;;;21.20;47.90;;;;;;5019235;28;20061;-62
2021/11/06 02:15:05;;;;;;;6.22;2.33;;;21.20;48.00;;;;;;5023230;28;20029;-63
2021/11/06 02:17:31;;;;;;;5.57;2.20;;;21.20;48.00;;;;;;5024787;28;20080;-63
2021/11/06 02:19:57;;;;;;;5.45;2.25;;;21.20;48.00;;;;;;5020971;28;20380;-63
2021/11/06 02:22:23;;;;;;;6.53;2.78;;;21.20;47.90;;;;;;5019434;28;20033;-63
2021/11/06 02:24:49;;;;;;;4.90;1.88;;;21.20;48.00;;;;;;5022885;28;20057;-63
2021/11/06 02:27:14;;;;;;;5.30;2.10;;;21.20;48.00;;;;;;5023751;28;20041;-63
2021/11/06 02:29:40;;;;;;;6.75;2.45;;;21.20;47.90;;;;;;5021707;28;20041;-64
2021/11/06 02:32:08;;;;;;;4.93;1.88;;;21.20;47.90;;;;;;5020033;28;20033;-63
2021/11/06 02:34:34;;;;;;;6.25;2.20;;;21.20;47.90;;;;;;5027139;28;20037;-63
2021/11/06 02:37:01;;;;;;;5.50;1.88;;;21.20;48.00;;;;;;5020543;28;20713;-63
2021/11/06 02:39:29;;;;;;;4.60;1.88;;;21.20;47.90;;;;;;5018525;28;20094;-63
2021/11/06 02:42:08;;;;;;;6.00;1.90;;;21.20;47.90;;;;;;5021097;28;20084;-64
2021/11/06 02:44:36;;;;;;;5.60;2.15;;;21.20;47.80;;;;;;5021908;28;20148;-63
2021/11/06 02:47:05;;;;;;;6.05;2.35;;;21.20;47.80;;;;;;5019443;28;20037;-62
2021/11/06 02:49:33;;;;;;;4.55;1.70;;;21.20;47.70;;;;;;5017162;28;20041;-63
2021/11/06 02:52:00;;;;;;;4.72;1.98;;;21.20;47.90;;;;;;5019586;28;20034;-64
2021/11/06 02:54:27;;;;;;;5.97;2.22;;;21.20;47.80;;;;;;5020208;28;20494;-64
2021/11/06 02:56:53;;;;;;;6.43;1.80;;;21.20;47.80;;;;;;5018502;28;20510;-63
2021/11/06 02:59:20;;;;;;;4.68;1.90;;;21.20;47.80;;;;;;5018186;28;20053;-63
2021/11/06 03:01:47;;;;;;;5.63;2.25;;;21.20;47.70;;;;;;5016899;28;20084;-63
2021/11/06 03:04:13;;;;;;;5.57;2.15;;;21.20;47.80;;;;;;5027873;28;20037;-63
2021/11/06 03:06:42;;;;;;;5.22;1.95;;;21.20;48.50;;;;;;5021366;28;20049;-64
2021/11/06 03:09:10;;;;;;;4.60;1.70;;;21.20;47.70;;;;;;5017794;28;20574;-63
2021/11/06 03:11:37;;;;;;;4.82;1.95;;;21.20;47.70;;;;;;5024621;28;20045;-63
2021/11/06 03:14:06;;;;;;;6.28;1.80;;;21.20;47.70;;;;;;5020024;28;20042;-63
2021/11/06 03:16:35;;;;;;;6.13;2.05;;;21.20;48.40;;;;;;5018460;28;20038;-63
2021/11/06 03:19:00;;;;;;;4.40;1.70;;;21.20;47.70;;;;;;5016950;28;20481;-63
2021/11/06 03:21:28;;;;;;;5.15;1.90;;;21.20;47.70;;;;;;5023580;28;20037;-62
2021/11/06 03:23:54;;;;;;;3.90;1.52;;;21.20;47.90;;;;;;5019607;28;20041;-62
2021/11/06 03:26:19;;;;;;;4.43;1.70;;;21.20;47.70;;;;;;5016089;28;20055;-64
2021/11/06 03:28:45;;;;;;;5.40;1.80;;;21.20;47.70;;;;;;5020000;28;20037;-63
2021/11/06 03:31:11;;;;;;;5.47;1.80;;;21.20;47.80;;;;;;5019631;28;20038;-63
2021/11/06 03:33:37;;;;;;;4.85;1.70;;;21.20;47.70;;;;;;5019852;28;20409;-63
2021/11/06 03:36:02;;;;;;;4.63;1.65;;;21.20;47.70;;;;;;5022130;28;20044;-63
2021/11/06 03:38:28;;;;;;;5.28;1.60;;;21.20;47.70;;;;;;5017613;28;20037;-62
2021/11/06 03:40:54;;;;;;;3.90;1.33;;;21.20;47.80;;;;;;5021014;28;20053;-64
2021/11/06 03:43:20;;;;;;;4.85;1.60;;;21.10;47.50;;;;;;5020738;28;20056;-63
2021/11/06 03:45:46;;;;;;;4.07;1.50;;;21.20;47.50;;;;;;5020656;28;20564;-63
2021/11/06 03:48:12;;;;;;;5.10;1.60;;;21.10;47.50;;;;;;5018218;28;20037;-63
2021/11/06 03:50:37;;;;;;;5.20;1.58;;;21.20;47.60;;;;;;5023554;28;20026;-63
2021/11/06 03:53:03;;;;;;;4.78;1.50;;;21.20;47.50;;;;;;5021519;28;20060;-63
2021/11/06 03:55:29;;;;;;;4.63;1.50;;;21.20;47.50;;;;;;5018404;28;20069;-62
2021/11/06 03:57:55;;;;;;;5.30;1.63;;;21.20;47.50;;;;;;5019746;28;20042;-63
2021/11/06 04:00:21;;;;;;;4.40;1.58;;;21.20;47.50;;;;;;5020818;28;20047;-63
2021/11/06 04:02:48;;;;;;;4.85;1.60;;;21.20;47.50;;;;;;5017801;28;20038;-64
2021/11/06 04:05:14;;;;;;;5.45;1.60;;;21.20;47.60;;;;;;5017667;28;20034;-63
2021/11/06 04:07:40;;;;;;;5.22;1.40;;;21.20;47.40;;;;;;5020571;28;20774;-63
2021/11/06 04:10:07;;;;;;;4.43;1.45;;;21.10;47.30;;;;;;5018363;28;20038;-63
2021/11/06 04:12:35;;;;;;;5.60;1.73;;;21.20;47.50;;;;;;5024381;28;20038;-63
2021/11/06 04:15:01;;;;;;;4.63;1.60;;;21.20;47.50;;;;;;5020137;28;20053;-63
2021/11/06 04:17:27;;;;;;;3.88;1.30;;;21.20;47.50;;;;;;5016579;28;20099;-64
2021/11/06 04:19:53;;;;;;;4.28;1.60;;;21.20;47.40;;;;;;5020087;28;20045;-61
2021/11/06 04:22:18;;;;;;;6.25;1.80;;;21.20;47.50;;;;;;5030606;28;20045;-63
2021/11/06 04:24:44;;;;;;;4.18;1.50;;;21.10;47.10;;;;;;5017905;28;20042;-63
2021/11/06 04:27:10;;;;;;;4.88;1.63;;;21.20;47.40;;;;;;5023686;28;20040;-63
2021/11/06 04:29:35;;;;;;;4.90;1.50;;;21.20;47.40;;;;;;5023690;28;20036;-63
2021/11/06 04:32:05;;;;;;;4.13;1.50;;;21.20;47.30;;;;;;5022351;28;20038;-63
2021/11/06 04:34:31;;;;;;;3.78;1.30;;;21.10;47.10;;;;;;5020027;28;20034;-63
2021/11/06 04:36:57;;;;;;;4.63;1.60;;;21.20;47.10;;;;;;5021380;28;20037;-63
2021/11/06 04:39:22;;;;;;;3.90;1.23;;;21.20;47.20;;;;;;5023253;28;20453;-63
2021/11/06 04:41:48;;;;;;;4.68;1.63;;;21.20;47.10;;;;;;5027080;28;20064;-63
2021/11/06 04:44:14;;;;;;;4.05;1.40;;;21.20;47.10;;;;;;5019023;28;20042;-63
2021/11/06 04:46:40;;;;;;;5.07;1.48;;;21.20;47.00;;;;;;5023185;28;20111;-63
2021/11/06 04:49:06;;;;;;;4.72;1.45;;;21.20;47.00;;;;;;5026973;28;20099;-64
2021/11/06 04:51:31;;;;;;;3.92;1.30;;;21.30;47.20;;;;;;5025387;28;20068;-63
2021/11/06 04:53:57;;;;;;;3.60;1.30;;;21.20;47.00;;;;;;5023354;28;20048;-62
2021/11/06 04:56:23;;;;;;;4.65;1.27;;;21.30;47.10;;;;;;5032742;28;20037;-63
2021/11/06 04:58:49;;;;;;;4.55;1.50;;;21.30;47.00;;;;;;5027220;28;20526;-64
2021/11/06 05:01:15;;;;;;;4.85;1.40;;;21.30;47.00;;;;;;5022345;28;20042;-64
2021/11/06 05:03:40;;;;;;;4.68;1.40;;;21.30;47.00;;;;;;5021652;28;20045;-64
2021/11/06 05:06:06;;;;;;;4.50;1.45;;;21.40;47.20;;;;;;5025665;28;20648;-63
2021/11/06 05:08:32;;;;;;;5.40;1.45;;;21.40;47.20;;;;;;5024366;28;20134;-63
2021/11/06 05:10:57;;;;;;;4.15;1.25;;;21.40;47.20;;;;;;5027260;28;20143;-63
2021/11/06 05:13:23;;;;;;;3.85;1.10;;;21.40;47.20;;;;;;5022172;28;20033;-63
2021/11/06 05:15:49;;;;;;;4.13;1.20;;;21.40;47.10;;;;;;5017242;28;20495;-63
2021/11/06 05:18:16;;;;;;;4.20;1.38;;;21.40;47.00;;;;;;5022940;28;20544;-63
2021/11/06 05:20:43;;;;;;;4.05;1.10;;;21.40;47.00;;;;;;5022598;28;20129;-64
2021/11/06 05:23:12;;;;;;;4.22;1.23;;;21.50;47.10;;;;;;5021046;28;20040;-63
2021/11/06 05:25:38;;;;;;;7.35;1.60;;;21.50;47.10;;;;;;5024140;28;20497;-63
2021/11/06 05:28:04;;;;;;;4.20;1.30;;;21.50;47.00;;;;;;5022948;28;20042;-63
2021/11/06 05:30:30;;;;;;;4.22;1.30;;;21.50;47.00;;;;;;5024632;28;20057;-63
2021/11/06 05:32:55;;;;;;;4.13;1.20;;;21.50;46.90;;;;;;5020677;28;20514;-63
2021/11/06 05:35:21;;;;;;;4.03;1.40;;;21.50;46.90;;;;;;5023953;28;20395;-63
2021/11/06 05:37:47;;;;;;;4.68;1.50;;;21.50;46.80;;;;;;5021967;28;20176;-63
2021/11/06 05:40:12;;;;;;;5.22;1.65;;;21.50;46.70;;;;;;5022678;28;20081;-63
2021/11/06 05:42:39;;;;;;;5.78;1.60;;;21.50;46.60;;;;;;5019994;28;20038;-63
2021/11/06 05:45:05;;;;;;;4.55;1.40;;;21.50;46.60;;;;;;5023975;28;20096;-63
2021/11/06 05:47:31;;;;;;;4.38;1.35;;;21.50;46.60;;;;;;5027053;28;20102;-63
2021/11/06 05:49:57;;;;;;;4.55;1.20;;;21.50;46.70;;;;;;5020320;28;20798;-63
2021/11/06 05:52:22;;;;;;;5.72;1.50;;;21.50;46.50;;;;;;5020819;28;20045;-63
2021/11/06 05:54:48;;;;;;;4.82;1.58;;;21.50;46.60;;;;;;5020244;28;20946;-63
2021/11/06 05:57:14;;;;;;;6.05;1.50;;;21.50;46.40;;;;;;5023290;28;20457;-63
2021/11/06 05:59:39;;;;;;;4.65;1.50;;;21.50;46.60;;;;;;5023019;28;20497;-63
2021/11/06 06:02:05;;;;;;;4.80;1.58;;;21.50;46.60;;;;;;5021571;28;20037;-63
2021/11/06 06:04:31;;;;;;;5.50;1.58;;;21.50;46.40;;;;;;5023659;28;20411;-63
2021/11/06 06:06:57;;;;;;;4.25;1.27;;;21.40;46.40;;;;;;5027439;28;20057;-63
2021/11/06 06:09:22;;;;;;;5.45;1.60;;;21.40;46.30;;;;;;5020504;28;20033;-63
2021/11/06 06:11:48;;;;;;;4.28;1.45;;;21.40;46.20;;;;;;5018190;28;20045;-63
2021/11/06 06:14:14;;;;;;;7.40;1.80;;;21.40;46.30;;;;;;5019783;28;20490;-63
2021/11/06 06:16:40;;;;;;;4.13;1.40;;;21.40;46.30;;;;;;5023421;28;20566;-63
2021/11/06 06:19:05;;;;;;;4.10;1.33;;;21.40;46.30;;;;;;5021153;28;20052;-63
2021/11/06 06:21:31;;;;;;;4.97;1.48;;;21.40;46.30;;;;;;5025437;28;20041;-63
2021/11/06 06:23:57;;;;;;;5.47;1.60;;;21.40;46.20;;;;;;5023289;28;20045;-63
2021/11/06 06:26:23;;;;;;;5.22;1.63;;;21.40;46.20;;;;;;5024120;28;20045;-63
2021/11/06 06:28:49;;;;;;;5.45;1.77;;;21.40;46.20;;;;;;5015981;28;20752;-63
2021/11/06 06:31:16;;;;;;;6.30;1.88;;;21.40;46.90;;;;;;5023591;28;20418;-63
2021/11/06 06:33:41;;;;;;;9.32;1.90;;;21.40;46.80;;;;;;5023465;28;20046;-64
2021/11/06 06:36:10;;;;;;;5.03;1.65;;;21.30;46.40;;;;;;5021200;28;20033;-63
2021/11/06 06:38:37;;;;;;;4.88;1.50;;;21.30;46.40;;;;;;5018818;28;20069;-64
2021/11/06 06:41:03;;;;;;;5.20;1.90;;;21.30;46.20;;;;;;5021228;28;20149;-62
2021/11/06 06:43:28;;;;;;;6.55;1.90;;;21.30;46.20;;;;;;5023807;28;20050;-63
2021/11/06 06:45:54;;;;;;;5.93;1.88;;;21.30;46.20;;;;;;5021376;28;20042;-63
2021/11/06 06:48:20;;;;;;;5.38;1.80;;;21.30;46.20;;;;;;5019638;28;20042;-63
2021/11/06 06:50:47;;;;;;;7.07;2.10;;;21.20;46.10;;;;;;5021664;28;20038;-63
2021/11/06 06:53:17;;;;;;;7.18;1.95;;;21.20;45.90;;;;;;5023977;28;20418;-63
2021/11/06 06:55:44;;;;;;;8.27;1.92;;;21.20;45.80;;;;;;5025062;28;20049;-63
2021/11/06 06:58:09;;;;;;;6.30;1.70;;;21.20;45.90;;;;;;5020804;28;20042;-64
2021/11/06 07:00:36;;;;;;;5.18;1.55;;;21.20;45.90;;;;;;5023746;28;20063;-64
2021/11/06 07:03:03;;;;;;;5.75;1.77;;;21.20;45.90;;;;;;5022067;28;20065;-63
2021/11/06 07:05:29;;;;;;;6.35;1.77;;;21.20;45.80;;;;;;5024324;28;20050;-63
2021/11/06 07:07:56;;;;;;;6.20;1.90;;;21.20;45.90;;;;;;5021083;28;20042;-63
2021/11/06 07:10:23;;;;;;;5.25;1.77;;;21.20;46.00;;;;;;5018272;28;20403;-64
2021/11/06 07:12:49;;;;;;;6.72;2.00;;;21.20;45.80;;;;;;5022084;28;20048;-63
2021/11/06 07:15:15;;;;;;;6.68;2.15;;;21.20;45.60;;;;;;5022124;28;20041;-63
2021/11/06 07:17:41;;;;;;;8.60;2.20;;;21.20;45.70;;;;;;5021342;28;20072;-64
2021/11/06 07:20:09;;;;;;;7.38;2.08;;;21.20;45.80;;;;;;5018360;28;20041;-63
2021/11/06 07:22:35;;;;;;;11.20;2.00;;;21.20;45.60;;;;;;5020499;28;20041;-64
2021/11/06 07:25:02;;;;;;;14.50;2.80;;;21.20;45.90;;;;;;5021864;28;20068;-63
2021/11/06 07:27:28;;;;;;;18.95;3.00;;;21.20;45.00;;;;;;5020666;28;20915;-64
2021/11/06 07:29:54;;;;;;;39.92;3.55;;;21.10;45.40;;;;;;5022971;28;20038;-64
2021/11/06 07:32:19;;;;;;;17.05;2.70;;;21.20;46.20;;;;;;5021259;28;20065;-64
2021/11/06 07:34:45;;;;;;;23.52;2.90;;;21.10;46.00;;;;;;5021355;28;20040;-64
2021/11/06 07:37:11;;;;;;;17.48;2.67;;;21.10;46.30;;;;;;5017913;28;20046;-63
2021/11/06 07:39:37;;;;;;;14.30;2.67;;;21.20;46.50;;;;;;5020521;28;20045;-63
2021/11/06 07:42:03;;;;;;;10.75;2.97;;;21.10;46.40;;;;;;5022735;28;20038;-64
2021/11/06 07:44:28;;;;;;;11.52;3.00;;;21.20;46.70;;;;;;5018911;28;20037;-64
2021/11/06 07:46:54;;;;;;;11.80;3.10;;;21.20;46.60;;;;;;5018575;28;20534;-63
2021/11/06 07:49:20;;;;;;;19.42;5.25;;;21.20;46.60;;;;;;5023299;28;20069;-63
2021/11/06 07:51:46;;;;;;;21.75;6.47;;;21.20;47.60;;;;;;5020003;28;20081;-64
2021/11/06 07:54:12;;;;;;;24.63;7.35;;;21.10;47.50;;;;;;5019532;28;20124;-63
2021/11/06 07:56:38;;;;;;;20.38;6.03;;;21.10;47.10;;;;;;5020150;28;20088;-62
2021/11/06 07:59:05;;;;;;;19.50;4.72;;;21.10;47.00;;;;;;5017653;28;20099;-63
2021/11/06 08:01:31;;;;;;;15.68;4.22;;;21.10;47.20;;;;;;5017104;28;20041;-63
2021/11/06 08:03:57;;;;;;;13.88;4.10;;;21.00;47.10;;;;;;5018690;28;20124;-64
2021/11/06 08:06:23;;;;;;;13.48;3.50;;;21.00;47.20;;;;;;5017630;28;20132;-63
2021/11/06 08:08:48;;;;;;;13.60;3.70;;;21.00;47.30;;;;;;5020675;28;20056;-63
2021/11/06 08:11:14;;;;;;;15.02;3.90;;;21.00;47.30;;;;;;5020164;28;20774;-63
2021/11/06 08:13:40;;;;;;;16.35;4.05;;;21.00;47.30;;;;;;5018817;28;20635;-64
2021/11/06 08:16:06;;;;;;;14.07;4.32;;;21.00;47.30;;;;;;5021194;28;20046;-64
2021/11/06 08:18:32;;;;;;;12.23;3.70;;;21.00;47.30;;;;;;5019822;28;20049;-63
2021/11/06 08:20:58;;;;;;;13.65;3.72;;;21.00;47.30;;;;;;5021059;28;20118;-63
2021/11/06 08:23:24;;;;;;;15.02;4.13;;;21.00;47.30;;;;;;5015014;28;20069;-63
2021/11/06 08:25:50;;;;;;;15.50;4.35;;;21.10;47.50;;;;;;5020394;28;20045;-63
2021/11/06 08:28:17;;;;;;;9.75;3.58;;;21.00;47.30;;;;;;5019964;28;20073;-63
2021/11/06 08:30:43;;;;;;;10.02;3.33;;;21.10;47.30;;;;;;5023423;28;20108;-64
2021/11/06 08:33:10;;;;;;;11.77;3.30;;;21.10;47.40;;;;;;5015661;28;20239;-63
2021/11/06 08:35:37;;;;;;;11.70;4.10;;;21.10;47.30;;;;;;5017573;28;20413;-63
2021/11/06 08:38:04;;;;;;;10.98;3.60;;;21.10;47.20;;;;;;5020250;28;20449;-63
2021/11/06 08:40:29;;;;;;;19.48;4.43;;;21.10;47.20;;;;;;5016702;28;20046;-63
2021/11/06 08:42:55;;;;;;;15.02;4.10;;;21.10;46.90;;;;;;5016568;28;20048;-63
2021/11/06 08:45:22;;;;;;;17.92;4.07;;;21.10;46.60;;;;;;5020881;28;20030;-63
2021/11/06 08:47:48;;;;;;;14.32;3.45;;;21.10;46.60;;;;;;5018739;28;20038;-63
2021/11/06 08:50:18;;;;;;;10.52;3.50;;;21.10;46.80;;;;;;5018872;28;20699;-64
2021/11/06 08:52:46;;;;;;;9.10;3.45;;;21.10;46.90;;;;;;5031169;28;20229;-62
2021/11/06 08:55:12;;;;;;;11.13;3.60;;;21.10;47.00;;;;;;5017523;28;20037;-62
2021/11/06 08:57:39;;;;;;;9.35;3.08;;;21.10;47.00;;;;;;5021162;28;20037;-62
2021/11/06 09:00:17;;;;;;;9.45;3.35;;;21.10;47.00;;;;;;5017721;28;20956;-63
2021/11/06 09:02:43;;;;;;;10.60;3.20;;;21.10;47.00;;;;;;5016410;28;20084;-63
2021/11/06 09:05:10;;;;;;;8.70;3.08;;;21.10;47.00;;;;;;5016029;28;20437;-63
2021/11/06 09:07:36;;;;;;;10.85;3.15;;;21.10;47.10;;;;;;5017994;28;20032;-63
2021/11/06 09:10:08;;;;;;;9.55;3.00;;;21.00;46.90;;;;;;5020049;28;20837;-63
2021/11/06 09:12:34;;;;;;;8.80;2.88;;;21.00;46.90;;;;;;5021677;28;20050;-64
2021/11/06 09:15:00;;;;;;;9.02;2.92;;;21.10;47.00;;;;;;5025173;28;20049;-63
2021/11/06 09:17:27;;;;;;;11.52;2.60;;;21.00;46.90;;;;;;5022848;28;20038;-63
2021/11/06 09:19:53;;;;;;;7.63;2.70;;;21.00;46.90;;;;;;5019190;28;20040;-64
2021/11/06 09:22:18;;;;;;;8.75;2.72;;;21.00;46.90;;;;;;5021946;28;20407;-63
2021/11/06 09:24:44;;;;;;;8.43;2.78;;;21.00;46.90;;;;;;5023299;28;20152;-63
2021/11/06 09:27:11;;;;;;;7.60;2.42;;;21.00;46.90;;;;;;5021191;28;20096;-63
2021/11/06 09:29:37;;;;;;;7.30;2.67;;;21.00;47.00;;;;;;5022136;28;20620;-64
2021/11/06 09:32:03;;;;;;;7.00;2.47;;;21.00;46.90;;;;;;5020674;28;20064;-63
2021/11/06 09:34:29;;;;;;;7.70;2.80;;;21.00;46.90;;;;;;5019982;28;20029;-61
2021/11/06 09:36:56;;;;;;;8.73;2.90;;;21.00;46.80;;;;;;5023223;28;20522;-63
2021/11/06 09:39:21;;;;;;;7.57;2.58;;;21.00;46.90;;;;;;5021130;28;20060;-63
2021/11/06 09:41:47;;;;;;;7.82;2.85;;;21.00;46.80;;;;;;5039163;28;20068;-63
2021/11/06 09:44:13;;;;;;;8.20;2.58;;;21.00;46.90;;;;;;5024359;28;20077;-63
2021/11/06 09:46:39;;;;;;;7.95;2.60;;;21.00;46.90;;;;;;5021376;28;20178;-63
2021/11/06 09:49:05;;;;;;;8.38;2.65;;;21.00;46.90;;;;;;5020214;28;20107;-63
2021/11/06 09:51:31;;;;;;;7.75;2.40;;;21.00;46.90;;;;;;5019808;28;20112;-64
2021/11/06 09:53:56;;;;;;;8.10;2.20;;;21.00;46.90;;;;;;5025665;28;20567;-64
2021/11/06 09:56:24;;;;;;;7.63;2.60;;;21.00;47.60;;;;;;5022005;28;20048;-64
2021/11/06 09:58:54;;;;;;;7.07;2.20;;;21.00;47.00;;;;;;5020359;28;20052;-62
2021/11/06 10:01:21;;;;;;;6.65;2.20;;;21.00;46.90;;;;;;5022418;28;20041;-63
2021/11/06 10:03:48;;;;;;;6.88;2.13;;;21.00;46.90;;;;;;5023310;28;20038;-64
2021/11/06 10:06:24;;;;;;;8.18;2.58;;;21.00;46.90;;;;;;5021916;28;20077;-64
2021/11/06 10:08:52;;;;;;;6.72;2.20;;;21.00;46.90;;;;;;5019647;28;20166;-63
2021/11/06 10:11:22;;;;;;;6.22;2.15;;;21.00;46.90;;;;;;5024541;28;20100;-63
2021/11/06 10:14:00;;;;;;;5.75;2.10;;;21.00;46.90;;;;;;5022506;28;20048;-63
2021/11/06 10:16:29;;;;;;;7.00;2.10;;;21.00;46.90;;;;;;5022207;28;20050;-63
2021/11/06 10:19:20;;;;;;;6.70;2.30;;;21.00;46.90;;;;;;5019162;28;20037;-63
2021/11/06 10:21:49;;;;;;;6.28;1.90;;;21.00;46.90;;;;;;5026200;28;20037;-64
2021/11/06 10:24:18;;;;;;;5.60;1.90;;;21.00;46.90;;;;;;5023220;28;20041;-63
2021/11/06 10:26:44;;;;;;;5.75;2.15;;;21.00;46.90;;;;;;5022021;28;20132;-63
2021/11/06 10:29:20;;;;;;;5.22;1.83;;;21.00;46.90;;;;;;5018682;28;20073;-64
2021/11/06 10:32:00;;;;;;;4.60;1.52;;;21.00;46.80;;;;;;5033740;28;20077;-63
2021/11/06 10:34:33;;;;;;;6.18;1.88;;;21.00;46.90;;;;;;5021280;28;20096;-64
2021/11/06 10:37:00;;;;;;;6.30;1.70;;;21.00;46.80;;;;;;5016949;28;20045;-64
2021/11/06 10:39:26;;;;;;;5.80;1.80;;;21.00;46.80;;;;;;5023975;28;20050;-62
2021/11/06 10:41:52;;;;;;;5.63;1.83;;;21.00;46.80;;;;;;5020120;28;20072;-64
2021/11/06 10:44:21;;;;;;;5.63;1.88;;;21.00;46.80;;;;;;5039816;28;20112;-64
2021/11/06 10:46:53;;;;;;;4.60;1.58;;;21.00;46.70;;;;;;5017565;28;20128;-62
2021/11/06 10:49:40;;;;;;;5.25;1.70;;;21.00;46.80;;;;;;5024670;28;20052;-63
2021/11/06 10:52:11;;;;;;;5.78;1.60;;;21.00;46.70;;;;;;5021202;28;20132;-63
2021/11/06 10:55:07;;;;;;;7.10;1.67;;;21.00;46.80;;;;;;5018333;28;20427;-63
2021/11/06 10:57:33;;;;;;;6.20;1.70;;;21.00;46.70;;;;;;5019355;28;20045;-63
2021/11/06 11:00:13;;;;;;;5.97;1.73;;;21.00;46.70;;;;;;5023242;28;20039;-63
2021/11/06 11:02:40;;;;;;;4.15;1.10;;;21.00;46.70;;;;;;5021960;28;20049;-64
2021/11/06 11:05:33;;;;;;;3.60;1.10;;;21.00;46.70;;;;;;5021985;28;20083;-63
2021/11/06 11:08:04;;;;;;;4.72;1.42;;;21.00;46.70;;;;;;5021474;28;20042;-63
2021/11/06 11:10:30;;;;;;;6.05;1.48;;;21.00;46.70;;;;;;5017864;28;20048;-66
2021/11/06 11:13:09;;;;;;;5.15;1.70;;;21.00;46.70;;;;;;5019739;28;20038;-64
2021/11/06 11:15:35;;;;;;;4.75;1.60;;;21.00;46.70;;;;;;5016535;28;20042;-62
2021/11/06 11:18:01;;;;;;;4.88;1.40;;;21.00;46.70;;;;;;5026114;28;20065;-63
2021/11/06 11:20:30;;;;;;;6.22;1.60;;;21.00;46.60;;;;;;5024355;28;20067;-64
2021/11/06 11:23:14;;;;;;;6.47;1.70;;;21.00;46.60;;;;;;5021065;28;20100;-64
2021/11/06 11:25:42;;;;;;;4.80;1.33;;;20.90;46.50;;;;;;5017571;28;20048;-63
2021/11/06 11:28:09;;;;;;;5.80;1.60;;;21.00;46.60;;;;;;5017602;28;20044;-64
2021/11/06 11:30:35;;;;;;;4.68;1.67;;;21.00;46.60;;;;;;5018163;28;20506;-63
2021/11/06 11:33:02;;;;;;;3.90;1.38;;;21.00;46.60;;;;;;5019826;28;20052;-63
2021/11/06 11:35:28;;;;;;;6.93;1.60;;;20.90;46.50;;;;;;5019945;28;20068;-64
2021/11/06 11:37:59;;;;;;;5.53;1.70;;;20.90;46.50;;;;;;5020009;28;20133;-63
2021/11/06 11:40:35;;;;;;;6.68;1.73;;;21.00;46.60;;;;;;5017473;28;20049;-63
2021/11/06 11:43:29;;;;;;;4.97;1.60;;;20.90;46.50;;;;;;5018698;28;20191;-63
2021/11/06 11:46:15;;;;;;;7.80;2.08;;;20.90;46.30;;;;;;5022157;28;20494;-63
2021/11/06 11:48:48;;;;;;;8.00;1.88;;;20.90;46.20;;;;;;5022022;28;20038;-63
2021/11/06 11:51:14;;;;;;;6.68;1.48;;;20.90;46.10;;;;;;5022461;28;20041;-62
2021/11/06 11:53:39;;;;;;;5.07;1.60;;;20.90;46.10;;;;;;5018982;28;20441;-63
2021/11/06 11:56:18;;;;;;;6.70;1.77;;;20.90;46.00;;;;;;5019450;28;20038;-63
2021/11/06 11:58:44;;;;;;;7.63;1.65;;;20.90;46.00;;;;;;5021506;28;20049;-62
2021/11/06 12:01:21;;;;;;;5.68;1.73;;;21.00;46.10;;;;;;5031808;28;20030;-63
2021/11/06 12:03:49;;;;;;;5.15;1.70;;;20.90;45.80;;;;;;5018252;28;20038;-63
2021/11/06 12:06:33;;;;;;;6.13;1.60;;;21.00;46.00;;;;;;5021205;28;20041;-63
2021/11/06 12:09:11;;;;;;;7.10;1.77;;;20.90;45.90;;;;;;5024247;28;20057;-63
2021/11/06 12:11:48;;;;;;;5.47;1.70;;;20.90;45.80;;;;;;5019565;28;20515;-63
2021/11/06 12:14:23;;;;;;;5.13;1.73;;;20.90;45.70;;;;;;5020177;28;20034;-63
2021/11/06 12:17:04;;;;;;;5.68;1.52;;;20.90;45.60;;;;;;5022233;28;20041;-63
2021/11/06 12:19:33;;;;;;;5.43;1.70;;;21.00;45.80;;;;;;5026025;28;20534;-63
2021/11/06 12:22:11;;;;;;;5.82;1.70;;;20.90;45.60;;;;;;5017705;28;20100;-63
2021/11/06 12:24:38;;;;;;;5.88;1.60;;;21.00;45.70;;;;;;5018860;28;20616;-62
2021/11/06 12:27:07;;;;;;;5.03;1.40;;;21.00;45.70;;;;;;5010859;28;20164;-62
2021/11/06 12:29:38;;;;;;;5.22;1.58;;;20.90;45.40;;;;;;4999441;28;20064;-63
2021/11/06 12:32:16;;;;;;;5.55;1.40;;;20.90;45.40;;;;;;5012547;28;20041;-63
2021/11/06 12:35:16;;;;;;;4.15;1.42;;;20.90;45.40;;;;;;5011126;28;20489;-63
2021/11/06 12:37:43;;;;;;;4.53;1.40;;;20.90;45.50;;;;;;5016222;28;20125;-62
2021/11/06 12:40:14;;;;;;;4.75;1.50;;;20.90;45.50;;;;;;5016888;28;20037;-63
2021/11/06 12:42:42;;;;;;;4.78;1.40;;;20.90;45.60;;;;;;5017330;28;20033;-64
2021/11/06 12:45:12;;;;;;;4.32;1.40;;;20.90;45.60;;;;;;5018810;28;20154;-63
2021/11/06 12:47:58;;;;;;;4.18;1.33;;;20.90;45.60;;;;;;5024253;28;20048;-63